Home > Products > Valid Products > TAF

000
FTUS43 KMQT 011128
TAFCMX
TAF
KCMX 011128Z 0112/0212 07009KT P6SM SCT090
     FM020100 03003KT P6SM SKC
     FM020300 33003KT P6SM SKC=



000
FTUS43 KMQT 011128
TAFSAW
TAF
KSAW 011128Z 0112/0212 03010KT P6SM BKN200
     FM011700 03010G15KT P6SM FEW200
     FM020100 01006KT P6SM SKC
     FM020400 00000KT P6SM SKC=



000
FTUS43 KMQT 010526
TAFCMX
TAF
KCMX 010526Z 0106/0206 05010KT P6SM BKN035
     FM012100 04005KT P6SM SCT040
     FM020300 33003KT P6SM SKC=



000
FTUS43 KMQT 010526
TAFSAW
TAF
KSAW 010526Z 0106/0206 02010KT P6SM BKN090
     FM011500 03009KT P6SM BKN250
     FM020100 36005KT P6SM SKC=



000
FTUS43 KMQT 302320
TAFSAW
TAF
KSAW 302320Z 0100/0124 02008KT P6SM SCT200=



000
FTUS43 KMQT 302320
TAFCMX
TAF
KCMX 302320Z 0100/0124 06008KT P6SM FEW200
     FM012300 03004KT P6SM SKC=



000
FTUS43 KMQT 301818 AAC
TAFCMX
TAF AMD
KCMX 301818Z 3018/0118 04012G17KT P6SM SCT027
     FM302000 05010G15KT P6SM FEW027
     FM010600 06009KT P6SM BKN060=



000
FTUS43 KMQT 301739 AAA
TAFSAW
TAF AMD
KSAW 301739Z 3018/0118 04014KT P6SM SCT150
     FM302000 02010G15KT P6SM SCT050
     FM302300 02009KT P6SM SCT060
     FM010600 02006KT P6SM BKN050
     FM011300 02007KT P6SM SCT100=



000
FTUS43 KMQT 301739 AAB
TAFCMX
TAF AMD
KCMX 301739Z 3018/0118 07009KT P6SM SCT027
     FM302000 05010G15KT P6SM FEW027
     FM010600 06009KT P6SM BKN060=



000
FTUS43 KMQT 301609 AAA
TAFCMX
TAF AMD
KCMX 301609Z 3016/0112 07011G17KT P6SM SCT025
     FM302100 06012G19KT P6SM SCT035
     FM010000 05009KT P6SM FEW060=



000
FTUS43 KMQT 301135
TAFSAW
TAF
KSAW 301135Z 3012/0112 01007KT P6SM FEW070
     FM301700 02011G17KT P6SM SCT050
     FM010100 02007KT P6SM SCT060=



000
FTUS43 KMQT 301135
TAFCMX
TAF
KCMX 301135Z 3012/0112 04006KT P6SM SCT070
     FM301500 05011G17KT P6SM SCT030
     FM302100 06012G19KT P6SM SCT035
     FM010000 05009KT P6SM FEW060=



000
FTUS43 KMQT 301135
TAFCMX
TAF
KCMX 301135Z 3012/0112 04006KT P6SM SCT070
     FM301500 05011G17KT P6SM SCT030
     FM302100 06012G19KT P6SM SCT035
     FM010000 05009KT P6SM FEW060=



000
FTUS43 KMQT 301135
TAFSAW
TAF
KSAW 301135Z 3012/0112 01007KT P6SM FEW070
     FM301700 02011G17KT P6SM SCT050
     FM010100 02007KT P6SM SCT060=



000
FTUS43 KMQT 300535
TAFSAW
TAF
KSAW 300535Z 3006/0106 01003KT P6SM SCT070
     FM301400 02007KT P6SM FEW050
     FM301800 02011G17KT P6SM SCT050
     FM010100 02006KT P6SM SCT060=



000
FTUS43 KMQT 300535
TAFCMX
TAF
KCMX 300535Z 3006/0106 02004KT P6SM SCT070
     FM301500 05011G17KT P6SM SCT030
     FM302100 06012G19KT P6SM SKC
     FM010300 05008KT P6SM SKC=



000
FTUS43 KMQT 292329
TAFCMX
TAF
KCMX 292329Z 3000/3024 10006KT P6SM SKC
     FM301400 04008KT P6SM SCT100
     FM301700 05012G18KT P6SM SCT060=



000
FTUS43 KMQT 292329
TAFSAW
TAF
KSAW 292329Z 3000/3024 04004KT P6SM SKC
     FM301600 03009KT P6SM SCT100=



000
FTUS43 KMQT 291720
TAFCMX
TAF
KCMX 291720Z 2918/3018 33005KT P6SM SKC
     FM292200 06005KT P6SM SKC
     FM301200 03007KT P6SM SCT050
     FM301600 05012G17KT P6SM FEW035=



000
FTUS43 KMQT 291720
TAFSAW
TAF
KSAW 291720Z 2918/3018 03007KT P6SM SCT110
     FM300200 02003KT P6SM SKC
     FM301500 01007KT P6SM FEW050=



000
FTUS43 KMQT 291720
TAFCMX
TAF
KCMX 291720Z 2918/3018 33005KT P6SM SKC
     FM292200 06005KT P6SM SKC
     FM301200 03007KT P6SM SCT050
     FM301600 05012G17KT P6SM FEW035=



000
FTUS43 KMQT 291128
TAFSAW
TAF
KSAW 291128Z 2912/3012 VRB03KT P6SM BKN080
     FM291500 00000KT P6SM SCT100
     FM291900 04010KT P6SM FEW100
     FM300100 01003KT P6SM SKC=



000
FTUS43 KMQT 291128
TAFCMX
TAF
KCMX 291128Z 2912/3012 VRB04KT P6SM SCT150
     FM291600 35006KT P6SM FEW150
     FM292000 10006KT P6SM FEW150
     FM300100 04004KT P6SM SKC=



000
FTUS43 KMQT 290521
TAFCMX
TAF
KCMX 290521Z 2906/3006 07003KT P6SM SCT150
     FM291500 35006KT P6SM FEW150
     FM292000 05005KT P6SM SKC=



000
FTUS43 KMQT 290521
TAFCMX
TAF
KCMX 290521Z 2906/3006 07003KT P6SM SCT150
     FM291500 35006KT P6SM FEW150
     FM292000 05005KT P6SM SKC=



000
FTUS43 KMQT 290521
TAFSAW
TAF
KSAW 290521Z 2906/3006 02003KT P6SM BKN100
     FM291900 04010KT P6SM FEW120
     FM300200 00000KT P6SM FEW060=



000
FTUS43 KMQT 282332 AAA
TAFSAW
TAF AMD
KSAW 282332Z 2900/2924 04010KT P6SM SCT200
     FM290400 01003KT P6SM SCT150
     FM292000 03007KT P6SM SCT130=



000
FTUS43 KMQT 282332 AAA
TAFCMX
TAF AMD
KCMX 282332Z 2900/2924 09009KT P6SM SCT200
     FM290400 08003KT P6SM SCT200=



000
FTUS43 KMQT 281723
TAFSAW
TAF
KSAW 281723Z 2818/2918 04009KT P6SM BKN200
     FM290200 01004KT P6SM SCT200=



000
FTUS43 KMQT 281723
TAFCMX
TAF
KCMX 281723Z 2818/2918 09012G17KT P6SM SCT200
     FM290000 08006KT P6SM SCT200
     FM290900 32003KT P6SM SCT200=



    US Dept of Commerce
    National Oceanic and Atmospheric Administration
    National Weather Service
    1325 East West Highway
    Silver Spring, MD 20910
    Page Author: NWS Internet Services Team
Disclaimer
Information Quality
Credits
Glossary
Privacy Policy
Freedom of Information Act (FOIA)
About Us
Career Opportunities